createdAt,value
2019-02-26T00:00:27.637Z,99334.74
2019-02-26T00:02:59.289Z,99334.20
2019-02-26T00:05:26.814Z,99337.72
2019-02-26T00:07:57.742Z,99340.73
2019-02-26T00:10:26.737Z,99335.64
2019-02-26T00:12:55.986Z,99326.40
2019-02-26T00:15:24.260Z,99323.38
2019-02-26T00:17:53.038Z,99323.69
2019-02-26T00:20:21.433Z,99325.05
2019-02-26T00:22:49.700Z,99319.36
2019-02-26T00:25:20.341Z,99318.78
2019-02-26T00:27:49.644Z,99310.70
2019-02-26T00:30:18.625Z,99304.60
2019-02-26T00:32:47.130Z,99302.53
2019-02-26T00:35:16.031Z,99296.75
2019-02-26T00:37:46.590Z,99296.12
2019-02-26T00:40:19.600Z,99289.30
2019-02-26T00:42:45.362Z,99285.58
2019-02-26T00:45:14.192Z,99281.12
2019-02-26T00:47:43.623Z,99277.52
2019-02-26T00:50:16.600Z,99272.70
2019-02-26T00:52:45.212Z,99278.13
2019-02-26T00:55:13.480Z,99287.00
2019-02-26T00:57:43.085Z,99290.22
2019-02-26T01:00:14.722Z,99286.71
2019-02-26T01:02:43.055Z,99279.08
2019-02-26T01:05:13.159Z,99270.53
2019-02-26T01:07:42.120Z,99271.16
2019-02-26T01:10:13.795Z,99274.14
2019-02-26T01:12:42.589Z,99277.11
2019-02-26T01:15:14.086Z,99272.50
2019-02-26T01:17:42.483Z,99268.91
2019-02-26T01:20:13.194Z,99273.34
2019-02-26T01:22:42.841Z,99273.14
2019-02-26T01:25:12.677Z,99272.44
2019-02-26T01:27:43.612Z,99268.33
2019-02-26T01:30:18.204Z,99263.05
2019-02-26T01:32:44.539Z,99265.77
2019-02-26T01:35:13.031Z,99286.48
2019-02-26T01:37:41.317Z,99296.91
2019-02-26T01:40:15.083Z,99289.98
2019-02-26T01:42:47.053Z,99283.45
2019-02-26T01:45:13.046Z,99279.13
2019-02-26T01:47:42.919Z,99274.23
2019-02-26T01:50:13.493Z,99277.94
2019-02-26T01:52:42.683Z,99285.32
2019-02-26T01:55:11.634Z,99282.44
2019-02-26T01:57:42.500Z,99278.44
2019-02-26T02:00:15.151Z,99277.90
2019-02-26T02:02:43.419Z,99270.93
2019-02-26T02:05:11.712Z,99273.00
2019-02-26T02:07:40.049Z,99278.02
2019-02-26T02:10:13.568Z,99279.88
2019-02-26T02:12:41.915Z,99283.92
2019-02-26T02:15:12.958Z,99278.16
2019-02-26T02:17:42.095Z,99279.80
2019-02-26T02:20:15.672Z,99274.39
2019-02-26T02:22:44.390Z,99275.88
2019-02-26T02:25:13.012Z,99274.11
2019-02-26T02:27:41.294Z,99275.46
2019-02-26T02:30:22.516Z,99275.13
2019-02-26T02:32:50.406Z,99272.38
2019-02-26T02:35:18.469Z,99276.86
2019-02-26T02:37:45.399Z,99273.48
2019-02-26T02:40:14.052Z,99267.78
2019-02-26T02:42:43.165Z,99263.08
2019-02-26T02:45:16.212Z,99253.17
2019-02-26T02:47:43.092Z,99253.97
2019-02-26T02:50:18.242Z,99243.05
2019-02-26T02:52:45.263Z,99240.25
2019-02-26T02:55:16.458Z,99241.58
2019-02-26T02:57:43.522Z,99240.88
2019-02-26T03:00:16.062Z,99245.70
2019-02-26T03:02:46.387Z,99237.91
2019-02-26T03:05:14.376Z,99241.30
2019-02-26T03:07:44.910Z,99235.81
2019-02-26T03:10:15.881Z,99235.59
2019-02-26T03:12:50.932Z,99233.79
2019-02-26T03:15:16.202Z,99228.84
2019-02-26T03:17:44.538Z,99231.31
2019-02-26T03:20:13.772Z,99226.58
2019-02-26T03:22:45.324Z,99235.84
2019-02-26T03:25:17.760Z,98272.91
2019-02-26T03:27:46.164Z,99241.56
2019-02-26T03:30:27.359Z,99239.54
2019-02-26T03:32:57.615Z,99239.81
2019-02-26T03:35:23.240Z,99243.86
2019-02-26T03:37:52.425Z,99242.77
2019-02-26T03:40:23.906Z,99235.39
2019-02-26T03:42:50.770Z,99234.85
2019-02-26T03:45:23.452Z,99217.88
2019-02-26T03:47:49.020Z,99212.92
2019-02-26T03:50:17.305Z,99216.83
2019-02-26T03:52:45.587Z,99218.28
2019-02-26T03:55:15.433Z,99209.39
2019-02-26T03:57:47.552Z,99202.93
2019-02-26T04:00:20.455Z,99199.43
2019-02-26T04:02:51.306Z,99194.70
2019-02-26T04:05:18.882Z,99193.79
2019-02-26T04:07:49.822Z,99198.73
2019-02-26T04:10:17.106Z,99192.92
2019-02-26T04:12:48.707Z,99189.88
2019-02-26T04:15:17.662Z,99188.09
2019-02-26T04:17:45.939Z,99185.42
2019-02-26T04:20:14.848Z,99177.70
2019-02-26T04:22:48.996Z,99182.66
2019-02-26T04:25:22.084Z,99186.15
2019-02-26T04:28:07.754Z,99180.46
2019-02-26T04:30:53.777Z,99178.27
2019-02-26T04:33:32.822Z,99178.09
2019-02-26T04:36:26.739Z,99173.97
2019-02-26T04:38:58.259Z,99179.94
2019-02-26T04:41:27.558Z,99170.27
2019-02-26T04:44:19.424Z,99168.06
2019-02-26T04:46:51.541Z,99165.55
2019-02-26T04:49:20.304Z,99169.46
2019-02-26T04:51:50.498Z,99163.91
2019-02-26T04:54:23.990Z,99169.81
2019-02-26T04:56:50.831Z,99172.83
2019-02-26T04:59:18.683Z,99169.91
2019-02-26T05:01:49.256Z,99168.46
2019-02-26T05:04:17.230Z,99173.04
2019-02-26T05:06:45.555Z,99170.84
2019-02-26T05:09:13.875Z,99169.94
2019-02-26T05:11:42.098Z,99169.06
2019-02-26T05:14:11.807Z,99169.19
2019-02-26T05:16:40.526Z,99168.02
2019-02-26T05:19:10.598Z,99173.61
2019-02-26T05:21:38.913Z,99170.60
2019-02-26T05:24:07.194Z,99167.92
2019-02-26T05:26:35.561Z,99167.92
2019-02-26T05:29:05.085Z,99165.78
2019-02-26T05:31:35.816Z,99159.12
2019-02-26T05:34:03.371Z,99157.20
2019-02-26T05:36:33.701Z,99155.00
2019-02-26T05:39:02.251Z,99154.22
2019-02-26T05:41:30.608Z,99153.86
2019-02-26T05:44:01.845Z,99148.70
2019-02-26T05:46:29.595Z,99145.37
2019-02-26T05:48:58.014Z,99153.98
2019-02-26T05:51:27.479Z,99154.25
2019-02-26T05:53:56.310Z,99155.25
2019-02-26T05:56:24.600Z,99164.97
2019-02-26T05:58:52.879Z,99166.41
2019-02-26T06:01:22.491Z,99168.55
2019-02-26T06:03:51.930Z,99173.38
2019-02-26T06:06:20.420Z,99171.78
2019-02-26T06:08:48.720Z,99165.27
2019-02-26T06:11:17.210Z,99166.39
2019-02-26T06:13:45.463Z,99178.05
2019-02-26T06:16:13.811Z,99178.73
2019-02-26T06:18:44.015Z,99193.08
2019-02-26T06:21:13.778Z,99196.62
2019-02-26T06:23:43.208Z,99196.05
2019-02-26T06:26:14.840Z,99195.61
2019-02-26T06:28:43.495Z,99203.34
2019-02-26T06:31:14.053Z,99194.48
2019-02-26T06:33:43.673Z,99193.64
2019-02-26T06:36:11.716Z,99196.29
2019-02-26T06:38:40.009Z,99187.11
2019-02-26T06:41:08.420Z,99184.91
2019-02-26T06:43:39.651Z,99184.37
2019-02-26T06:46:09.242Z,99180.39
2019-02-26T06:48:36.956Z,99183.44
2019-02-26T06:51:07.001Z,99189.06
2019-02-26T06:53:35.677Z,99182.66
2019-02-26T06:56:05.674Z,99183.28
2019-02-26T06:58:36.221Z,99190.96
2019-02-26T07:01:07.632Z,99189.61
2019-02-26T07:03:36.134Z,99188.34
2019-02-26T07:06:04.962Z,99191.28
2019-02-26T07:08:33.411Z,99191.25
2019-02-26T07:11:03.748Z,99180.06
2019-02-26T07:13:33.764Z,99182.95
2019-02-26T07:16:04.578Z,99186.16
2019-02-26T07:18:31.870Z,99185.95
2019-02-26T07:21:00.440Z,99190.38
2019-02-26T07:23:29.926Z,99200.40
2019-02-26T07:25:59.152Z,99201.23
2019-02-26T07:28:27.450Z,99202.02
2019-02-26T07:30:55.846Z,99200.91
2019-02-26T07:33:24.101Z,99207.59
2019-02-26T07:35:54.404Z,99216.16
2019-02-26T07:38:23.024Z,99216.30
2019-02-26T07:40:54.185Z,99203.88
2019-02-26T07:43:22.652Z,99203.88
2019-02-26T07:45:51.424Z,99207.38
2019-02-26T07:48:21.353Z,99212.77
2019-02-26T07:50:50.803Z,99205.08
2019-02-26T07:53:21.626Z,99204.16
2019-02-26T07:55:49.068Z,99192.94
2019-02-26T07:58:17.877Z,99188.78
2019-02-26T08:00:49.564Z,99184.07
2019-02-26T08:03:17.400Z,99176.78
2019-02-26T08:05:46.460Z,99173.48
2019-02-26T08:08:16.524Z,99163.74
2019-02-26T08:10:47.814Z,99166.44
2019-02-26T08:13:14.708Z,99169.13
2019-02-26T08:15:42.993Z,99161.33
2019-02-26T08:18:11.264Z,99164.73
2019-02-26T08:20:40.283Z,99160.99
2019-02-26T08:23:08.661Z,99166.72
2019-02-26T08:25:36.914Z,99168.67
2019-02-26T08:28:05.169Z,99174.04
2019-02-26T08:30:33.465Z,99170.52
2019-02-26T08:33:04.386Z,99184.33
2019-02-26T08:35:31.733Z,99190.67
2019-02-26T08:38:00.071Z,99183.19
2019-02-26T08:40:28.339Z,99178.73
2019-02-26T08:42:56.611Z,99179.61
2019-02-26T08:45:25.863Z,99167.83
2019-02-26T08:47:54.328Z,99163.67
2019-02-26T08:50:22.592Z,99181.89
2019-02-26T08:52:53.506Z,99180.67
2019-02-26T08:55:23.910Z,99182.47
2019-02-26T08:57:53.409Z,99175.35
2019-02-26T09:00:21.665Z,99169.98
2019-02-26T09:02:53.692Z,99167.60
2019-02-26T09:05:19.907Z,99150.17
2019-02-26T09:07:50.386Z,99155.55
2019-02-26T09:10:20.485Z,99155.70
2019-02-26T09:12:48.929Z,99154.20
2019-02-26T09:15:19.420Z,99157.30
2019-02-26T09:17:47.720Z,99156.42
2019-02-26T09:20:17.229Z,99152.45
2019-02-26T09:22:48.074Z,99146.82
2019-02-26T09:25:15.703Z,99140.91
2019-02-26T09:27:44.091Z,99134.56
2019-02-26T09:30:16.172Z,99128.84
2019-02-26T09:32:44.935Z,98997.48
2019-02-26T09:35:20.318Z,99126.85
2019-02-26T09:37:49.951Z,99133.27
2019-02-26T09:40:20.153Z,99137.34
2019-02-26T09:42:51.750Z,99129.86
2019-02-26T09:45:30.697Z,99129.99
2019-02-26T09:48:01.107Z,99133.20
2019-02-26T09:50:28.975Z,99134.16
2019-02-26T09:52:59.133Z,99145.71
2019-02-26T09:55:27.278Z,99149.92
2019-02-26T09:57:55.562Z,99151.22
2019-02-26T10:00:27.150Z,99149.21
2019-02-26T10:02:53.898Z,99144.09
2019-02-26T10:05:22.191Z,99149.04
2019-02-26T10:07:52.291Z,99148.89
2019-02-26T10:10:25.361Z,99155.52
2019-02-26T10:12:54.333Z,99158.09
2019-02-26T10:15:23.192Z,99151.50
2019-02-26T10:17:51.460Z,99143.48
2019-02-26T10:20:27.870Z,99142.48
2019-02-26T10:22:57.230Z,99140.63
2019-02-26T10:25:25.690Z,99138.13
2019-02-26T10:27:53.921Z,99132.16
2019-02-26T10:30:22.383Z,99122.05
2019-02-26T10:32:50.717Z,99124.79
2019-02-26T10:35:29.929Z,99125.22
2019-02-26T10:37:57.046Z,99120.65
2019-02-26T10:40:34.654Z,99118.48
2019-02-26T10:42:55.704Z,99114.53
2019-02-26T10:45:36.097Z,99109.09
2019-02-26T10:48:01.917Z,99111.66
2019-02-26T10:50:31.994Z,99103.15
2019-02-26T10:53:06.841Z,99107.09
2019-02-26T10:55:38.632Z,99105.34
2019-02-26T10:58:09.959Z,99103.52
2019-02-26T11:00:37.941Z,99108.19
2019-02-26T11:03:08.913Z,99106.07
2019-02-26T11:05:37.755Z,99100.66
2019-02-26T11:08:09.347Z,99098.06
2019-02-26T11:10:41.399Z,99100.76
2019-02-26T11:13:07.338Z,99102.80
2019-02-26T11:15:36.053Z,99093.79
2019-02-26T11:18:04.510Z,99092.62
2019-02-26T11:20:34.454Z,99099.77
2019-02-26T11:23:06.105Z,99098.63
2019-02-26T11:25:36.936Z,99095.71
2019-02-26T11:28:07.361Z,99087.67
2019-02-26T11:30:35.386Z,99082.62
2019-02-26T11:33:06.048Z,99080.26
2019-02-26T11:35:34.260Z,99076.34
2019-02-26T11:38:02.672Z,99067.55
2019-02-26T11:40:31.109Z,99053.97
2019-02-26T11:43:11.281Z,99049.13
2019-02-26T11:45:37.201Z,99049.45
2019-02-26T11:48:08.685Z,99044.24
2019-02-26T11:50:36.888Z,99037.66
2019-02-26T11:53:09.349Z,99039.27
2019-02-26T11:55:37.981Z,99032.59
2019-02-26T11:58:09.992Z,99030.41
2019-02-26T12:00:53.247Z,99023.95
2019-02-26T12:03:25.361Z,99024.16
2019-02-26T12:05:54.190Z,99019.48
2019-02-26T12:08:25.711Z,99006.61
2019-02-26T12:10:57.530Z,99006.50
2019-02-26T12:13:27.480Z,99008.28
2019-02-26T12:15:53.775Z,98999.39
2019-02-26T12:18:23.850Z,99004.36
2019-02-26T12:20:52.318Z,98999.10
2019-02-26T12:23:22.801Z,98992.94
2019-02-26T12:25:53.596Z,98987.50
2019-02-26T12:28:21.331Z,98988.36
2019-02-26T12:30:49.775Z,98981.83
2019-02-26T12:33:18.218Z,98976.64
2019-02-26T12:35:46.618Z,98975.27
2019-02-26T12:38:20.747Z,98971.84
2019-02-26T12:40:47.202Z,98970.09
2019-02-26T12:43:18.221Z,98964.11
2019-02-26T12:45:45.567Z,98964.27
2019-02-26T12:48:16.317Z,98957.41
2019-02-26T12:50:45.219Z,98957.08
2019-02-26T12:53:17.211Z,98953.01
2019-02-26T12:55:43.858Z,98945.48
2019-02-26T12:58:17.021Z,98941.41
2019-02-26T13:00:42.773Z,98936.60
2019-02-26T13:03:12.611Z,98936.02
2019-02-26T13:05:42.471Z,98930.34
2019-02-26T13:08:13.509Z,98935.39
2019-02-26T13:10:43.490Z,98931.41
2019-02-26T13:13:11.827Z,98921.19
2019-02-26T13:15:42.614Z,98924.33
2019-02-26T13:18:11.186Z,98916.41
2019-02-26T13:20:39.534Z,98919.34
2019-02-26T13:23:16.966Z,98911.67
2019-02-26T13:25:38.165Z,98906.83
2019-02-26T13:28:06.661Z,98902.95
2019-02-26T13:30:38.309Z,98904.52
2019-02-26T13:33:10.850Z,98891.17
2019-02-26T13:35:36.568Z,98886.92
2019-02-26T13:38:05.569Z,98890.20
2019-02-26T13:40:38.428Z,98878.40
2019-02-26T13:45:34.084Z,98869.15
2019-02-26T13:48:02.325Z,98529.69
2019-02-26T13:50:33.109Z,98864.42
2019-02-26T13:53:01.357Z,98860.94
2019-02-26T13:55:29.797Z,98858.04
2019-02-26T13:57:58.061Z,98857.72
2019-02-26T14:00:27.108Z,98865.35
2019-02-26T14:02:55.446Z,98864.84
2019-02-26T14:05:23.867Z,98865.41
2019-02-26T14:07:52.192Z,98867.01
2019-02-26T14:10:22.645Z,98867.52
2019-02-26T14:12:50.923Z,98867.77
2019-02-26T14:15:31.509Z,98870.47
2019-02-26T14:17:59.796Z,98866.98
2019-02-26T14:20:28.051Z,98867.30
2019-02-26T14:22:56.326Z,98871.17
2019-02-26T14:25:24.575Z,98870.30
2019-02-26T14:27:52.826Z,98871.88
2019-02-26T14:30:22.029Z,98868.74
2019-02-26T14:32:50.286Z,98864.53
2019-02-26T14:35:18.561Z,98871.95
2019-02-26T14:37:46.814Z,98860.59
2019-02-26T14:40:16.234Z,98864.67
2019-02-26T14:42:44.490Z,98856.16
2019-02-26T14:45:18.480Z,98735.69
2019-02-26T14:47:46.736Z,98849.59
2019-02-26T14:50:16.739Z,98856.87
2019-02-26T14:52:46.197Z,98851.00
2019-02-26T14:55:15.468Z,98851.97
2019-02-26T14:57:43.730Z,98848.23
2019-02-26T15:00:20.894Z,98846.45
2019-02-26T15:02:49.331Z,98848.58
2019-02-26T15:05:17.581Z,98850.70
2019-02-26T15:07:45.909Z,98843.19
2019-02-26T15:10:14.171Z,98840.34
2019-02-26T15:12:42.435Z,98839.30
2019-02-26T15:15:17.798Z,98845.43
2019-02-26T15:17:46.071Z,98856.23
2019-02-26T15:20:17.032Z,98855.98
2019-02-26T15:22:45.279Z,98847.73
2019-02-26T15:25:27.587Z,98846.03
2019-02-26T15:28:04.512Z,98848.66
2019-02-26T15:30:25.842Z,98846.14
2019-02-26T15:32:54.106Z,98851.95
2019-02-26T15:35:22.373Z,98856.48
2019-02-26T15:37:50.634Z,98846.17
2019-02-26T15:40:19.731Z,98840.29
2019-02-26T15:42:52.452Z,98836.64
2019-02-26T15:45:24.014Z,98841.39
2019-02-26T15:47:52.590Z,98844.86
2019-02-26T15:50:21.485Z,98840.36
2019-02-26T15:52:52.649Z,98837.38
2019-02-26T15:55:30.385Z,98835.78
2019-02-26T15:58:03.151Z,98832.55
2019-02-26T16:00:28.866Z,98836.02
2019-02-26T16:02:59.388Z,98828.08
2019-02-26T16:05:38.238Z,98832.03
2019-02-26T16:08:06.706Z,98828.38
2019-02-26T16:10:34.951Z,98827.19
2019-02-26T16:13:05.887Z,98830.43
2019-02-26T16:15:38.884Z,98829.58
2019-02-26T16:18:07.129Z,98827.86
2019-02-26T16:20:35.393Z,98830.58
2019-02-26T16:23:03.652Z,98828.34
2019-02-26T16:25:31.945Z,98834.39
2019-02-26T16:28:00.203Z,98832.92
2019-02-26T16:30:28.987Z,98836.81
2019-02-26T16:32:57.247Z,98834.07
2019-02-26T16:35:25.786Z,98839.05
2019-02-26T16:37:54.037Z,98829.48
2019-02-26T16:40:22.375Z,98826.78
2019-02-26T16:42:50.643Z,98831.51
2019-02-26T16:45:23.393Z,98829.95
2019-02-26T16:47:51.673Z,98663.77
2019-02-26T16:50:24.257Z,98840.66
2019-02-26T16:52:52.517Z,98840.30
2019-02-26T16:55:21.051Z,98842.88
2019-02-26T16:57:49.349Z,98845.41
2019-02-26T17:00:23.758Z,98850.38
2019-02-26T17:02:52.012Z,98855.58
2019-02-26T17:05:20.270Z,98856.59
2019-02-26T17:07:48.528Z,98856.23
2019-02-26T17:10:18.454Z,98857.36
2019-02-26T17:12:48.357Z,98865.84
2019-02-26T17:15:29.934Z,98861.17
2019-02-26T17:17:58.195Z,98879.33
2019-02-26T17:20:26.544Z,98878.53
2019-02-26T17:22:54.821Z,98880.48
2019-02-26T17:25:27.455Z,98883.88
2019-02-26T17:27:53.079Z,98880.06
2019-02-26T17:30:23.821Z,98881.56
2019-02-26T17:32:51.319Z,98877.39
2019-02-26T17:35:19.578Z,98883.06
2019-02-26T17:37:47.838Z,98878.53
2019-02-26T17:40:18.716Z,98881.12
2019-02-26T17:42:48.842Z,98889.28
2019-02-26T17:45:25.231Z,98880.56
2019-02-26T17:47:56.782Z,98885.16
2019-02-26T17:50:31.445Z,98894.93
2019-02-26T17:52:59.735Z,98896.23
2019-02-26T17:55:28.010Z,98893.17
2019-02-26T17:57:56.266Z,98893.75
2019-02-26T18:00:26.975Z,98896.05
2019-02-26T18:02:55.256Z,98897.58
2019-02-26T18:05:23.536Z,98888.77
2019-02-26T18:07:51.802Z,98885.97
2019-02-26T18:10:22.385Z,98898.56
2019-02-26T18:12:50.646Z,98895.52
2019-02-26T18:15:20.781Z,98891.59
2019-02-26T18:17:48.996Z,98888.18
2019-02-26T18:20:21.945Z,98886.78
2019-02-26T18:22:50.310Z,98889.29
2019-02-26T18:25:20.811Z,98892.12
2019-02-26T18:27:49.185Z,98886.81
2019-02-26T18:30:22.273Z,98883.88
2019-02-26T18:32:55.207Z,98883.73
2019-02-26T18:35:20.906Z,98884.66
2019-02-26T18:37:49.307Z,98890.61
2019-02-26T18:40:18.546Z,98892.02
2019-02-26T18:42:47.307Z,98895.22
2019-02-26T18:45:27.980Z,98893.27
2019-02-26T18:47:56.503Z,98888.20
2019-02-26T18:50:28.449Z,98886.60
2019-02-26T18:52:58.286Z,98890.92
2019-02-26T18:55:28.423Z,98887.88
2019-02-26T18:57:57.225Z,98888.97
2019-02-26T19:00:33.836Z,98900.73
2019-02-26T19:03:02.231Z,98897.27
2019-02-26T19:05:30.798Z,98902.73
2019-02-26T19:07:59.160Z,98900.67
2019-02-26T19:10:27.714Z,98899.19
2019-02-26T19:13:02.399Z,98888.16
2019-02-26T19:15:33.636Z,98894.44
2019-02-26T19:18:03.274Z,98892.88
2019-02-26T19:20:36.889Z,98898.44
2019-02-26T19:23:05.345Z,98897.17
2019-02-26T19:25:33.722Z,98898.86
2019-02-26T19:28:02.089Z,98894.48
2019-02-26T19:30:31.483Z,98890.95
2019-02-26T19:32:59.874Z,98887.52
2019-02-26T19:35:28.246Z,98883.41
2019-02-26T19:38:01.712Z,98881.77
2019-02-26T19:40:42.202Z,98883.81
2019-02-26T19:43:10.516Z,98885.50
2019-02-26T19:45:38.789Z,98887.89
2019-02-26T19:48:07.249Z,98881.44
2019-02-26T19:50:35.532Z,98883.13
2019-02-26T19:53:03.877Z,98881.13
2019-02-26T19:55:35.457Z,98886.66
2019-02-26T19:58:06.710Z,98882.80
2019-02-26T20:00:33.809Z,98882.13
2019-02-26T20:03:04.802Z,98885.44
2019-02-26T20:05:32.102Z,98884.95
2019-02-26T20:08:04.900Z,98877.36
2019-02-26T20:10:30.478Z,98875.63
2019-02-26T20:13:01.618Z,98883.55
2019-02-26T20:15:30.368Z,98883.97
2019-02-26T20:17:58.851Z,98880.09
2019-02-26T20:20:27.174Z,98883.19
2019-02-26T20:22:55.438Z,98882.03
2019-02-26T20:25:23.692Z,98878.59
2019-02-26T20:27:54.596Z,98869.98
2019-02-26T20:30:23.055Z,98872.08
2019-02-26T20:32:51.499Z,98865.09
2019-02-26T20:35:19.770Z,98864.80
2019-02-26T20:37:48.070Z,98860.14
2019-02-26T20:40:24.214Z,98865.09
2019-02-26T20:42:52.644Z,98864.27
2019-02-26T20:45:23.657Z,98858.17
2019-02-26T20:47:51.931Z,98857.77
2019-02-26T20:50:21.495Z,98853.69
2019-02-26T20:52:50.401Z,98853.31
2019-02-26T20:55:22.755Z,98845.68
2019-02-26T20:57:51.060Z,98847.69
2019-02-26T21:00:25.032Z,98838.65
2019-02-26T21:02:50.550Z,98837.78
2019-02-26T21:05:18.802Z,98837.62
2019-02-26T21:07:47.064Z,98828.49
2019-02-26T21:10:17.329Z,98824.23
2019-02-26T21:12:45.621Z,98831.38
2019-02-26T21:15:22.364Z,98828.30
2019-02-26T21:17:50.637Z,98831.27
2019-02-26T21:20:20.571Z,98852.01
2019-02-26T21:22:48.839Z,98838.33
2019-02-26T21:25:19.875Z,98838.33
2019-02-26T21:27:48.135Z,98841.34
2019-02-26T21:30:18.143Z,98840.69
2019-02-26T21:32:46.478Z,98842.61
2019-02-26T21:35:14.991Z,98848.06
2019-02-26T21:37:43.333Z,98838.91
2019-02-26T21:40:16.818Z,98851.63
2019-02-26T21:42:45.229Z,98846.98
2019-02-26T21:45:16.411Z,98842.42
2019-02-26T21:47:44.840Z,98852.50
2019-02-26T21:50:14.380Z,98708.72
2019-02-26T21:52:59.230Z,98857.84
2019-02-26T21:55:16.163Z,98851.95
2019-02-26T21:57:44.510Z,98853.36
2019-02-26T22:00:17.897Z,98855.43
2019-02-26T22:02:46.522Z,98863.77
2019-02-26T22:05:16.448Z,98858.09
2019-02-26T22:07:44.814Z,98861.61
2019-02-26T22:10:18.137Z,98863.59
2019-02-26T22:12:46.387Z,98870.36
2019-02-26T22:15:15.638Z,98876.33
2019-02-26T22:17:43.922Z,98877.18
2019-02-26T22:20:23.493Z,98877.38
2019-02-26T22:22:44.779Z,98879.05
2019-02-26T22:25:16.953Z,98871.99
2019-02-26T22:27:43.957Z,98872.63
2019-02-26T22:30:21.467Z,98876.12
2019-02-26T22:32:47.063Z,98886.84
2019-02-26T22:35:17.026Z,98886.49
2019-02-26T22:37:45.396Z,98882.00
2019-02-26T22:40:14.562Z,98878.45
2019-02-26T22:42:42.829Z,98886.67
2019-02-26T22:45:15.482Z,98888.25
2019-02-26T22:47:44.372Z,98885.41
2019-02-26T22:50:17.356Z,98884.91
2019-02-26T22:52:45.629Z,98892.92
2019-02-26T22:55:16.550Z,98894.20
2019-02-26T22:57:45.230Z,98890.13
2019-02-26T23:00:51.139Z,98892.62
2019-02-26T23:03:19.460Z,98888.00
2019-02-26T23:05:47.796Z,98890.73
2019-02-26T23:08:16.130Z,98888.11
2019-02-26T23:10:44.384Z,98879.39
2019-02-26T23:13:12.736Z,98875.73
2019-02-26T23:15:44.895Z,98875.78
2019-02-26T23:18:11.424Z,98888.02
2019-02-26T23:20:42.574Z,98879.13
2019-02-26T23:23:09.777Z,98874.88
2019-02-26T23:25:38.060Z,98877.02
2019-02-26T23:28:06.344Z,98876.67
2019-02-26T23:30:34.615Z,98877.05
2019-02-26T23:33:02.868Z,98880.65
2019-02-26T23:35:31.183Z,98877.08
2019-02-26T23:37:59.516Z,98875.00
2019-02-26T23:40:28.078Z,98867.20
2019-02-26T23:42:56.626Z,98871.08
2019-02-26T23:45:24.942Z,98865.75
2019-02-26T23:47:53.190Z,98860.92
2019-02-26T23:50:21.491Z,98855.80
2019-02-26T23:52:50.320Z,98851.35
2019-02-26T23:55:18.685Z,98846.05
2019-02-26T23:57:46.956Z,98854.05
